sensor_id;sensor_type;location;lat;lon;timestamp;pressure;altitude;pressure_sealevel;temperature;humidity
22031;BME280;11179;52.106;21.024;2023-02-23T00:01:39;100954.78;;;-1.05;48.74
22031;BME280;11179;52.106;21.024;2023-02-23T00:04:05;100966.41;;;-1.04;48.74
22031;BME280;11179;52.106;21.024;2023-02-23T00:06:32;100960.16;;;-1.05;48.87
22031;BME280;11179;52.106;21.024;2023-02-23T00:08:58;100960.16;;;-1.05;49.11
22031;BME280;11179;52.106;21.024;2023-02-23T00:11:26;100961.00;;;-1.04;49.03
22031;BME280;11179;52.106;21.024;2023-02-23T00:13:52;100955.63;;;-1.04;49.21
22031;BME280;11179;52.106;21.024;2023-02-23T00:16:21;100956.47;;;-1.04;49.08
22031;BME280;11179;52.106;21.024;2023-02-23T00:18:57;100958.47;;;-1.06;49.31
22031;BME280;11179;52.106;21.024;2023-02-23T00:21:29;100955.78;;;-1.06;49.16
22031;BME280;11179;52.106;21.024;2023-02-23T00:24:17;100950.75;;;-1.01;49.47
22031;BME280;11179;52.106;21.024;2023-02-23T00:26:44;100947.38;;;-1.03;49.14
22031;BME280;11179;52.106;21.024;2023-02-23T00:29:14;100950.06;;;-1.03;49.42
22031;BME280;11179;52.106;21.024;2023-02-23T00:31:46;100955.78;;;-1.06;49.53
22031;BME280;11179;52.106;21.024;2023-02-23T00:34:13;100948.72;;;-1.07;49.52
22031;BME280;11179;52.106;21.024;2023-02-23T00:36:40;100952.59;;;-1.09;49.66
22031;BME280;11179;52.106;21.024;2023-02-23T00:39:09;100953.44;;;-1.09;49.66
22031;BME280;11179;52.106;21.024;2023-02-23T00:41:55;100942.50;;;-1.15;49.84
22031;BME280;11179;52.106;21.024;2023-02-23T00:44:26;100951.56;;;-1.16;49.84
22031;BME280;11179;52.106;21.024;2023-02-23T00:46:51;100944.84;;;-1.20;49.97
22031;BME280;11179;52.106;21.024;2023-02-23T00:49:18;100945.53;;;-1.26;50.19
22031;BME280;11179;52.106;21.024;2023-02-23T00:51:44;100950.22;;;-1.37;50.20
22031;BME280;11179;52.106;21.024;2023-02-23T00:54:13;100943.13;;;-1.46;50.50
22031;BME280;11179;52.106;21.024;2023-02-23T00:56:39;100947.34;;;-1.51;50.66
22031;BME280;11179;52.106;21.024;2023-02-23T00:59:05;100937.91;;;-1.55;50.90
22031;BME280;11179;52.106;21.024;2023-02-23T01:01:31;100935.38;;;-1.57;51.07
22031;BME280;11179;52.106;21.024;2023-02-23T01:03:57;100932.50;;;-1.63;50.97
22031;BME280;11179;52.106;21.024;2023-02-23T01:06:22;100928.28;;;-1.66;51.13
22031;BME280;11179;52.106;21.024;2023-02-23T01:08:49;100924.56;;;-1.73;51.37
22031;BME280;11179;52.106;21.024;2023-02-23T01:11:20;100930.47;;;-1.78;51.62
22031;BME280;11179;52.106;21.024;2023-02-23T01:13:47;100927.78;;;-1.78;51.66
22031;BME280;11179;52.106;21.024;2023-02-23T01:16:16;100932.47;;;-1.80;51.85
22031;BME280;11179;52.106;21.024;2023-02-23T01:18:43;100918.31;;;-1.82;51.75
22031;BME280;11179;52.106;21.024;2023-02-23T01:21:20;100933.31;;;-1.79;51.98
22031;BME280;11179;52.106;21.024;2023-02-23T01:23:45;100923.38;;;-1.87;52.08
22031;BME280;11179;52.106;21.024;2023-02-23T01:26:17;100936.84;;;-1.87;52.25
22031;BME280;11179;52.106;21.024;2023-02-23T01:28:47;100926.06;;;-1.87;52.16
22031;BME280;11179;52.106;21.024;2023-02-23T01:31:12;100933.09;;;-1.86;52.23
22031;BME280;11179;52.106;21.024;2023-02-23T01:33:37;100925.03;;;-1.86;52.29
22031;BME280;11179;52.106;21.024;2023-02-23T01:36:03;100915.09;;;-1.93;52.45
22031;BME280;11179;52.106;21.024;2023-02-23T01:38:28;100921.31;;;-1.93;52.48
22031;BME280;11179;52.106;21.024;2023-02-23T01:40:53;100925.03;;;-1.94;52.63
22031;BME280;11179;52.106;21.024;2023-02-23T01:43:20;100922.66;;;-1.97;52.70
22031;BME280;11179;52.106;21.024;2023-02-23T01:45:56;100913.25;;;-2.01;52.88
22031;BME280;11179;52.106;21.024;2023-02-23T01:48:36;100912.72;;;-2.05;53.02
22031;BME280;11179;52.106;21.024;2023-02-23T01:51:07;100911.19;;;-2.07;53.09
22031;BME280;11179;52.106;21.024;2023-02-23T01:53:36;100903.44;;;-2.10;53.23
22031;BME280;11179;52.106;21.024;2023-02-23T01:56:10;100905.13;;;-2.09;53.45
22031;BME280;11179;52.106;21.024;2023-02-23T01:58:41;100899.59;;;-2.08;53.61
22031;BME280;11179;52.106;21.024;2023-02-23T02:01:09;100902.59;;;-2.11;53.82
22031;BME280;11179;52.106;21.024;2023-02-23T02:03:38;100898.91;;;-2.10;53.94
22031;BME280;11179;52.106;21.024;2023-02-23T02:06:07;100901.75;;;-2.11;54.01
22031;BME280;11179;52.106;21.024;2023-02-23T02:08:36;100901.59;;;-2.10;54.03
22031;BME280;11179;52.106;21.024;2023-02-23T02:11:09;100903.44;;;-2.10;54.04
22031;BME280;11179;52.106;21.024;2023-02-23T02:13:51;100895.88;;;-2.15;54.27
22031;BME280;11179;52.106;21.024;2023-02-23T02:16:22;100898.72;;;-2.16;54.31
22031;BME280;11179;52.106;21.024;2023-02-23T02:40:41;100899.75;;;-2.09;55.28
22031;BME280;11179;52.106;21.024;2023-02-23T02:46:22;100889.97;;;-2.10;55.67
22031;BME280;11179;52.106;21.024;2023-02-23T02:48:59;100900.06;;;-2.12;55.75
22031;BME280;11179;52.106;21.024;2023-02-23T02:54:34;100889.59;;;-2.23;56.20
22031;BME280;11179;52.106;21.024;2023-02-23T02:57:03;100894.28;;;-2.25;56.04
22031;BME280;11179;52.106;21.024;2023-02-23T02:59:30;100896.50;;;-2.29;56.12
22031;BME280;11179;52.106;21.024;2023-02-23T03:02:16;100890.38;;;-2.39;56.30
22031;BME280;11179;52.106;21.024;2023-02-23T03:05:01;100887.19;;;-2.43;56.42
22031;BME280;11179;52.106;21.024;2023-02-23T03:08:20;100906.50;;;-2.39;56.92
22031;BME280;11179;52.106;21.024;2023-02-23T03:11:09;100899.28;;;-2.39;56.86
22031;BME280;11179;52.106;21.024;2023-02-23T03:14:18;100898.66;;;-2.32;57.19
22031;BME280;11179;52.106;21.024;2023-02-23T03:22:57;100890.16;;;-2.12;57.28
22031;BME280;11179;52.106;21.024;2023-02-23T03:29:26;100892.03;;;-2.04;57.36
22031;BME280;11179;52.106;21.024;2023-02-23T03:32:26;100878.53;;;-2.12;57.36
22031;BME280;11179;52.106;21.024;2023-02-23T03:35:39;100886.97;;;-1.99;57.42
22031;BME280;11179;52.106;21.024;2023-02-23T03:38:33;100888.50;;;-1.96;57.44
22031;BME280;11179;52.106;21.024;2023-02-23T03:41:20;100894.94;;;-1.89;57.53
22031;BME280;11179;52.106;21.024;2023-02-23T03:44:10;100897.47;;;-1.88;57.71
22031;BME280;11179;52.106;21.024;2023-02-23T03:46:56;100895.44;;;-1.86;57.92
22031;BME280;11179;52.106;21.024;2023-02-23T03:49:41;100890.56;;;-1.82;58.01
22031;BME280;11179;52.106;21.024;2023-02-23T03:52:31;100898.16;;;-1.78;58.01
22031;BME280;11179;52.106;21.024;2023-02-23T03:55:22;100903.22;;;-1.75;58.25
22031;BME280;11179;52.106;21.024;2023-02-23T03:58:12;100902.88;;;-1.72;58.26
22031;BME280;11179;52.106;21.024;2023-02-23T04:00:58;100891.75;;;-1.69;58.34
22031;BME280;11179;52.106;21.024;2023-02-23T04:03:45;100891.44;;;-1.66;58.49
22031;BME280;11179;52.106;21.024;2023-02-23T04:06:35;100882.88;;;-1.61;58.49
22031;BME280;11179;52.106;21.024;2023-02-23T04:09:20;100888.44;;;-1.62;58.53
22031;BME280;11179;52.106;21.024;2023-02-23T04:12:26;100887.59;;;-1.63;58.77
22031;BME280;11179;52.106;21.024;2023-02-23T04:15:35;100889.06;;;-1.69;58.96
22031;BME280;11179;52.106;21.024;2023-02-23T04:18:03;100894.28;;;-1.67;59.14
22031;BME280;11179;52.106;21.024;2023-02-23T04:20:29;100895.13;;;-1.67;59.18
22031;BME280;11179;52.106;21.024;2023-02-23T04:22:54;100901.53;;;-1.59;59.53
22031;BME280;11179;52.106;21.024;2023-02-23T04:25:20;100899.53;;;-1.57;59.58
22031;BME280;11179;52.106;21.024;2023-02-23T04:27:50;100898.84;;;-1.59;59.71
22031;BME280;11179;52.106;21.024;2023-02-23T04:30:16;100896.66;;;-1.56;59.88
22031;BME280;11179;52.106;21.024;2023-02-23T04:32:41;100888.06;;;-1.59;60.11
22031;BME280;11179;52.106;21.024;2023-02-23T04:35:08;100889.44;;;-1.55;60.30
22031;BME280;11179;52.106;21.024;2023-02-23T04:37:34;100896.50;;;-1.46;60.31
22031;BME280;11179;52.106;21.024;2023-02-23T04:39:59;100877.31;;;-1.51;60.46
22031;BME280;11179;52.106;21.024;2023-02-23T04:42:24;100889.78;;;-1.42;60.71
22031;BME280;11179;52.106;21.024;2023-02-23T04:44:50;100886.41;;;-1.44;60.88
22031;BME280;11179;52.106;21.024;2023-02-23T04:47:15;100887.59;;;-1.39;61.04
22031;BME280;11179;52.106;21.024;2023-02-23T04:49:42;100885.06;;;-1.40;61.21
22031;BME280;11179;52.106;21.024;2023-02-23T04:52:07;100883.72;;;-1.36;61.12
22031;BME280;11179;52.106;21.024;2023-02-23T04:54:36;100880.88;;;-1.35;61.33
22031;BME280;11179;52.106;21.024;2023-02-23T04:57:02;100875.97;;;-1.39;61.46
22031;BME280;11179;52.106;21.024;2023-02-23T04:59:28;100884.22;;;-1.33;61.67
22031;BME280;11179;52.106;21.024;2023-02-23T05:01:53;100883.56;;;-1.26;61.49
22031;BME280;11179;52.106;21.024;2023-02-23T05:04:18;100883.56;;;-1.26;61.85
22031;BME280;11179;52.106;21.024;2023-02-23T05:06:44;100872.94;;;-1.28;61.88
22031;BME280;11179;52.106;21.024;2023-02-23T05:09:09;100878.00;;;-1.25;61.78
22031;BME280;11179;52.106;21.024;2023-02-23T05:11:34;100880.66;;;-1.17;61.77
22031;BME280;11179;52.106;21.024;2023-02-23T05:13:59;100883.38;;;-1.17;62.09
22031;BME280;11179;52.106;21.024;2023-02-23T05:16:25;100877.66;;;-1.22;61.94
22031;BME280;11179;52.106;21.024;2023-02-23T05:18:50;100877.84;;;-1.23;62.02
22031;BME280;11179;52.106;21.024;2023-02-23T05:21:16;100869.75;;;-1.23;62.09
22031;BME280;11179;52.106;21.024;2023-02-23T05:23:41;100880.34;;;-1.22;62.29
22031;BME280;11179;52.106;21.024;2023-02-23T05:26:11;100871.91;;;-1.19;62.32
22031;BME280;11179;52.106;21.024;2023-02-23T05:28:38;100852.75;;;-1.24;62.30
22031;BME280;11179;52.106;21.024;2023-02-23T05:31:03;100867.53;;;-1.12;62.04
22031;BME280;11179;52.106;21.024;2023-02-23T05:33:30;100862.16;;;-1.12;62.28
22031;BME280;11179;52.106;21.024;2023-02-23T05:35:56;100872.22;;;-1.06;62.09
22031;BME280;11179;52.106;21.024;2023-02-23T05:38:22;100878.31;;;-1.04;62.12
22031;BME280;11179;52.106;21.024;2023-02-23T05:40:47;100871.22;;;-1.05;62.21
22031;BME280;11179;52.106;21.024;2023-02-23T05:43:12;100886.38;;;-1.04;62.29
22031;BME280;11179;52.106;21.024;2023-02-23T05:45:42;100877.97;;;-1.01;62.26
22031;BME280;11179;52.106;21.024;2023-02-23T05:48:09;100882.34;;;-1.00;61.94
22031;BME280;11179;52.106;21.024;2023-02-23T05:50:34;100881.66;;;-1.02;61.95
22031;BME280;11179;52.106;21.024;2023-02-23T05:53:00;100889.44;;;-0.99;62.01
22031;BME280;11179;52.106;21.024;2023-02-23T05:55:25;100877.13;;;-1.01;62.08
22031;BME280;11179;52.106;21.024;2023-02-23T05:57:51;100886.72;;;-0.99;62.14
22031;BME280;11179;52.106;21.024;2023-02-23T06:00:17;100882.31;;;-0.92;62.08
22031;BME280;11179;52.106;21.024;2023-02-23T06:02:43;100887.38;;;-0.88;61.91
22031;BME280;11179;52.106;21.024;2023-02-23T06:05:10;100885.19;;;-0.85;61.92
22031;BME280;11179;52.106;21.024;2023-02-23T06:07:36;100881.31;;;-0.82;61.70
22031;BME280;11179;52.106;21.024;2023-02-23T06:10:02;100881.81;;;-0.87;61.98
22031;BME280;11179;52.106;21.024;2023-02-23T06:12:28;100883.34;;;-0.84;61.98
22031;BME280;11179;52.106;21.024;2023-02-23T06:14:53;100895.47;;;-0.80;61.83
22031;BME280;11179;52.106;21.024;2023-02-23T06:17:18;100879.94;;;-0.78;61.70
22031;BME280;11179;52.106;21.024;2023-02-23T06:19:43;100870.53;;;-0.82;61.71
22031;BME280;11179;52.106;21.024;2023-02-23T06:22:09;100889.88;;;-0.71;61.72
22031;BME280;11179;52.106;21.024;2023-02-23T06:24:34;100890.03;;;-0.64;61.57
22031;BME280;11179;52.106;21.024;2023-02-23T06:27:00;100890.84;;;-0.55;61.56
22031;BME280;11179;52.106;21.024;2023-02-23T06:29:25;100892.53;;;-0.54;61.54
22031;BME280;11179;52.106;21.024;2023-02-23T06:31:51;100890.31;;;-0.51;61.43
22031;BME280;11179;52.106;21.024;2023-02-23T06:34:16;100892.34;;;-0.53;61.35
22031;BME280;11179;52.106;21.024;2023-02-23T06:36:45;100898.25;;;-0.49;61.44
22031;BME280;11179;52.106;21.024;2023-02-23T06:39:10;100891.66;;;-0.47;61.11
22031;BME280;11179;52.106;21.024;2023-02-23T06:41:36;100885.59;;;-0.41;61.01
22031;BME280;11179;52.106;21.024;2023-02-23T06:44:01;100893.31;;;-0.38;60.92
22031;BME280;11179;52.106;21.024;2023-02-23T06:46:27;100889.06;;;-0.32;60.80
22031;BME280;11179;52.106;21.024;2023-02-23T06:48:56;100895.09;;;-0.22;60.64
22031;BME280;11179;52.106;21.024;2023-02-23T06:51:22;100891.53;;;-0.14;60.62
22031;BME280;11179;52.106;21.024;2023-02-23T06:53:47;100888.13;;;-0.08;60.33
22031;BME280;11179;52.106;21.024;2023-02-23T06:56:13;100892.84;;;-0.02;60.23
22031;BME280;11179;52.106;21.024;2023-02-23T06:58:40;100883.88;;;-0.03;60.25
22031;BME280;11179;52.106;21.024;2023-02-23T07:01:07;100888.56;;;0.03;60.13
22031;BME280;11179;52.106;21.024;2023-02-23T07:03:34;100892.59;;;0.07;60.06
22031;BME280;11179;52.106;21.024;2023-02-23T07:05:59;100895.06;;;0.17;59.75
22031;BME280;11179;52.106;21.024;2023-02-23T07:08:25;100888.78;;;0.25;59.68
22031;BME280;11179;52.106;21.024;2023-02-23T07:10:50;100886.19;;;0.31;59.48
22031;BME280;11179;52.106;21.024;2023-02-23T07:13:15;100897.78;;;0.40;59.26
22031;BME280;11179;52.106;21.024;2023-02-23T07:15:41;100881.47;;;0.33;59.08
22031;BME280;11179;52.106;21.024;2023-02-23T07:18:07;100881.78;;;0.38;59.31
22031;BME280;11179;52.106;21.024;2023-02-23T07:20:33;100882.06;;;0.43;58.89
22031;BME280;11179;52.106;21.024;2023-02-23T07:22:59;100880.75;;;0.39;58.83
22031;BME280;11179;52.106;21.024;2023-02-23T07:25:28;100888.03;;;0.39;59.02
22031;BME280;11179;52.106;21.024;2023-02-23T07:27:53;100882.38;;;0.48;58.91
22031;BME280;11179;52.106;21.024;2023-02-23T07:30:19;100876.31;;;0.46;58.75
22031;BME280;11179;52.106;21.024;2023-02-23T07:32:49;100871.84;;;0.54;58.86
22031;BME280;11179;52.106;21.024;2023-02-23T07:35:14;100881.94;;;0.60;58.62
22031;BME280;11179;52.106;21.024;2023-02-23T07:37:39;100875.44;;;0.69;58.46
22031;BME280;11179;52.106;21.024;2023-02-23T07:40:06;100880.50;;;0.72;58.26
22031;BME280;11179;52.106;21.024;2023-02-23T07:42:32;100877.72;;;0.80;57.99
22031;BME280;11179;52.106;21.024;2023-02-23T07:44:57;100873.94;;;0.89;58.08
22031;BME280;11179;52.106;21.024;2023-02-23T07:47:23;100861.72;;;0.93;57.69
22031;BME280;11179;52.106;21.024;2023-02-23T07:49:55;100862.00;;;0.98;57.41
22031;BME280;11179;52.106;21.024;2023-02-23T07:52:21;100866.03;;;1.02;57.33
22031;BME280;11179;52.106;21.024;2023-02-23T07:54:46;100866.03;;;1.02;57.02
22031;BME280;11179;52.106;21.024;2023-02-23T07:57:11;100859.44;;;1.05;57.03
22031;BME280;11179;52.106;21.024;2023-02-23T07:59:37;100865.78;;;1.27;57.22
22031;BME280;11179;52.106;21.024;2023-02-23T08:02:03;100862.78;;;1.36;56.59
22031;BME280;11179;52.106;21.024;2023-02-23T08:04:28;100855.16;;;1.54;56.40
22031;BME280;11179;52.106;21.024;2023-02-23T08:06:54;100854.13;;;1.70;56.11
22031;BME280;11179;52.106;21.024;2023-02-23T08:09:19;100851.44;;;1.91;55.74
22031;BME280;11179;52.106;21.024;2023-02-23T08:11:44;100844.44;;;1.97;55.58
22031;BME280;11179;52.106;21.024;2023-02-23T08:14:10;100845.81;;;2.08;55.57
22031;BME280;11179;52.106;21.024;2023-02-23T08:16:35;100843.75;;;2.10;54.72
22031;BME280;11179;52.106;21.024;2023-02-23T08:19:00;100842.72;;;2.11;55.14
22031;BME280;11179;52.106;21.024;2023-02-23T08:21:26;100834.59;;;2.11;54.94
22031;BME280;11179;52.106;21.024;2023-02-23T08:23:53;100826.66;;;2.09;54.74
22031;BME280;11179;52.106;21.024;2023-02-23T08:26:23;100834.78;;;2.09;54.59
22031;BME280;11179;52.106;21.024;2023-02-23T08:29:09;100834.47;;;1.98;54.82
22031;BME280;11179;52.106;21.024;2023-02-23T08:31:35;100836.75;;;2.01;54.82
22031;BME280;11179;52.106;21.024;2023-02-23T08:34:00;100828.91;;;2.06;54.52
22031;BME280;11179;52.106;21.024;2023-02-23T08:36:26;100827.84;;;2.21;54.52
22031;BME280;11179;52.106;21.024;2023-02-23T08:38:51;100816.75;;;2.38;54.20
22031;BME280;11179;52.106;21.024;2023-02-23T08:41:18;100820.31;;;2.66;53.83
22031;BME280;11179;52.106;21.024;2023-02-23T08:43:44;100820.84;;;3.04;53.67
22031;BME280;11179;52.106;21.024;2023-02-23T08:46:10;100814.78;;;3.36;52.99
22031;BME280;11179;52.106;21.024;2023-02-23T08:48:35;100813.84;;;3.57;52.72
22031;BME280;11179;52.106;21.024;2023-02-23T08:51:03;100809.53;;;3.76;52.00
22031;BME280;11179;52.106;21.024;2023-02-23T08:53:28;100804.19;;;3.89;51.87
22031;BME280;11179;52.106;21.024;2023-02-23T08:55:59;100807.56;;;4.04;51.96
22031;BME280;11179;52.106;21.024;2023-02-23T08:58:26;100806.16;;;4.22;51.64
22031;BME280;11179;52.106;21.024;2023-02-23T09:00:56;100800.34;;;4.38;51.02
22031;BME280;11179;52.106;21.024;2023-02-23T09:03:26;100798.47;;;4.65;51.12
22031;BME280;11179;52.106;21.024;2023-02-23T09:06:36;100795.53;;;4.73;50.33
22031;BME280;11179;52.106;21.024;2023-02-23T09:09:01;100797.63;;;4.38;50.00
22031;BME280;11179;52.106;21.024;2023-02-23T09:11:26;100785.88;;;4.11;50.42
22031;BME280;11179;52.106;21.024;2023-02-23T09:13:52;100793.97;;;4.04;50.60
22031;BME280;11179;52.106;21.024;2023-02-23T09:16:17;100787.09;;;4.08;50.27
22031;BME280;11179;52.106;21.024;2023-02-23T09:18:43;100799.63;;;4.03;50.30
22031;BME280;11179;52.106;21.024;2023-02-23T09:21:14;100784.34;;;3.95;50.38
22031;BME280;11179;52.106;21.024;2023-02-23T09:23:43;100782.91;;;4.13;50.18
22031;BME280;11179;52.106;21.024;2023-02-23T09:26:09;100781.09;;;4.33;49.95
22031;BME280;11179;52.106;21.024;2023-02-23T09:28:37;100778.81;;;4.50;49.96
22031;BME280;11179;52.106;21.024;2023-02-23T09:31:22;100780.88;;;4.61;49.73
22031;BME280;11179;52.106;21.024;2023-02-23T09:33:49;100770.00;;;4.54;49.45
22031;BME280;11179;52.106;21.024;2023-02-23T09:36:21;100774.00;;;4.65;49.61
22031;BME280;11179;52.106;21.024;2023-02-23T09:38:49;100765.41;;;4.61;49.47
22031;BME280;11179;52.106;21.024;2023-02-23T09:46:44;100758.28;;;4.87;49.48
22031;BME280;11179;52.106;21.024;2023-02-23T09:49:17;100762.84;;;5.06;49.17
22031;BME280;11179;52.106;21.024;2023-02-23T09:51:48;100764.50;;;5.07;48.77
22031;BME280;11179;52.106;21.024;2023-02-23T09:54:16;100754.94;;;4.91;48.94
22031;BME280;11179;52.106;21.024;2023-02-23T09:56:47;100753.91;;;4.79;49.41
22031;BME280;11179;52.106;21.024;2023-02-23T09:59:19;100762.69;;;4.61;49.16
22031;BME280;11179;52.106;21.024;2023-02-23T10:12:32;100741.72;;;4.95;49.16
22031;BME280;11179;52.106;21.024;2023-02-23T10:18:24;100740.69;;;4.83;49.26
22031;BME280;11179;52.106;21.024;2023-02-23T10:21:18;100741.31;;;4.85;49.21
22031;BME280;11179;52.106;21.024;2023-02-23T10:26:26;100720.94;;;5.13;49.70
22031;BME280;11179;52.106;21.024;2023-02-23T10:28:56;100721.59;;;5.15;49.40
22031;BME280;11179;52.106;21.024;2023-02-23T10:31:26;100718.47;;;4.99;48.85
22031;BME280;11179;52.106;21.024;2023-02-23T10:33:54;100726.88;;;4.84;48.99
22031;BME280;11179;52.106;21.024;2023-02-23T10:36:35;100718.75;;;4.77;48.83
22031;BME280;11179;52.106;21.024;2023-02-23T10:39:04;100713.47;;;4.83;49.13
22031;BME280;11179;52.106;21.024;2023-02-23T10:41:31;100703.00;;;4.93;49.25
22031;BME280;11179;52.106;21.024;2023-02-23T10:43:57;100700.47;;;5.04;49.15
22031;BME280;11179;52.106;21.024;2023-02-23T10:46:30;100684.78;;;5.00;48.72
22031;BME280;11179;52.106;21.024;2023-02-23T10:48:59;100692.53;;;4.96;48.84
22031;BME280;11179;52.106;21.024;2023-02-23T10:51:28;100682.88;;;5.00;49.06
22031;BME280;11179;52.106;21.024;2023-02-23T10:53:54;100674.09;;;5.05;48.86
22031;BME280;11179;52.106;21.024;2023-02-23T10:56:21;100677.34;;;5.20;49.17
22031;BME280;11179;52.106;21.024;2023-02-23T10:58:55;100669.13;;;5.33;49.19
22031;BME280;11179;52.106;21.024;2023-02-23T11:01:37;100671.06;;;5.26;48.43
22031;BME280;11179;52.106;21.024;2023-02-23T11:04:21;100666.31;;;5.15;48.76
22031;BME280;11179;52.106;21.024;2023-02-23T11:06:48;100659.19;;;5.07;48.51
22031;BME280;11179;52.106;21.024;2023-02-23T11:11:56;100643.84;;;5.20;48.69
22031;BME280;11179;52.106;21.024;2023-02-23T11:14:24;100639.25;;;5.20;48.43
22031;BME280;11179;52.106;21.024;2023-02-23T11:16:52;100635.31;;;5.09;48.65
22031;BME280;11179;52.106;21.024;2023-02-23T11:19:32;100628.00;;;5.10;48.73
22031;BME280;11179;52.106;21.024;2023-02-23T11:21:59;100634.69;;;5.14;48.56
22031;BME280;11179;52.106;21.024;2023-02-23T11:24:26;100630.69;;;5.17;49.15
22031;BME280;11179;52.106;21.024;2023-02-23T11:26:56;100627.16;;;5.16;48.75
22031;BME280;11179;52.106;21.024;2023-02-23T11:29:31;100614.81;;;5.07;48.73
22031;BME280;11179;52.106;21.024;2023-02-23T11:32:02;100618.78;;;5.11;48.80
22031;BME280;11179;52.106;21.024;2023-02-23T11:34:34;100624.28;;;5.04;48.45
22031;BME280;11179;52.106;21.024;2023-02-23T11:39:27;100610.19;;;5.14;48.72
22031;BME280;11179;52.106;21.024;2023-02-23T11:42:17;100603.22;;;5.25;48.88
22031;BME280;11179;52.106;21.024;2023-02-23T11:44:49;100596.84;;;5.44;48.72
22031;BME280;11179;52.106;21.024;2023-02-23T11:47:20;100590.47;;;5.57;48.35
22031;BME280;11179;52.106;21.024;2023-02-23T11:49:47;100586.28;;;5.54;47.90
22031;BME280;11179;52.106;21.024;2023-02-23T11:52:18;100587.13;;;5.55;48.36
22031;BME280;11179;52.106;21.024;2023-02-23T11:54:55;100583.72;;;5.59;48.37
22031;BME280;11179;52.106;21.024;2023-02-23T11:57:26;100590.63;;;5.62;48.06
22031;BME280;11179;52.106;21.024;2023-02-23T11:59:53;100584.66;;;5.46;48.15
22031;BME280;11179;52.106;21.024;2023-02-23T12:05:12;100571.94;;;5.40;47.75
22031;BME280;11179;52.106;21.024;2023-02-23T12:08:04;100564.81;;;5.39;48.14
22031;BME280;11179;52.106;21.024;2023-02-23T12:10:42;100562.03;;;5.46;48.48
22031;BME280;11179;52.106;21.024;2023-02-23T12:13:37;100558.25;;;5.47;48.07
22031;BME280;11179;52.106;21.024;2023-02-23T12:18:43;100552.44;;;5.43;47.84
22031;BME280;11179;52.106;21.024;2023-02-23T12:23:43;100541.47;;;5.50;47.93
22031;BME280;11179;52.106;21.024;2023-02-23T12:26:14;100538.97;;;5.48;48.07
22031;BME280;11179;52.106;21.024;2023-02-23T12:29:19;100521.44;;;5.44;47.63
22031;BME280;11179;52.106;21.024;2023-02-23T12:32:09;100525.97;;;5.50;47.88
22031;BME280;11179;52.106;21.024;2023-02-23T12:34:50;100530.19;;;5.46;47.75
22031;BME280;11179;52.106;21.024;2023-02-23T12:37:36;100518.41;;;5.53;48.22
22031;BME280;11179;52.106;21.024;2023-02-23T12:40:27;100512.91;;;5.59;47.97
22031;BME280;11179;52.106;21.024;2023-02-23T12:43:04;100514.19;;;5.57;47.77
22031;BME280;11179;52.106;21.024;2023-02-23T12:45:50;100514.56;;;5.60;48.16
22031;BME280;11179;52.106;21.024;2023-02-23T12:51:43;100500.28;;;5.65;47.97
22031;BME280;11179;52.106;21.024;2023-02-23T12:54:14;100504.69;;;5.66;48.07
22031;BME280;11179;52.106;21.024;2023-02-23T12:57:36;100499.91;;;5.61;47.88
22031;BME280;11179;52.106;21.024;2023-02-23T13:02:18;100494.97;;;5.51;48.08
22031;BME280;11179;52.106;21.024;2023-02-23T13:07:58;100474.75;;;5.59;48.11
22031;BME280;11179;52.106;21.024;2023-02-23T13:10:34;100472.44;;;5.63;47.83
22031;BME280;11179;52.106;21.024;2023-02-23T13:13:28;100466.09;;;5.69;47.95
22031;BME280;11179;52.106;21.024;2023-02-23T13:16:10;100462.47;;;5.75;48.29
22031;BME280;11179;52.106;21.024;2023-02-23T13:18:45;100459.75;;;5.75;48.37
22031;BME280;11179;52.106;21.024;2023-02-23T13:21:24;100464.94;;;5.83;48.45
22031;BME280;11179;52.106;21.024;2023-02-23T13:24:00;100458.19;;;5.85;48.18
22031;BME280;11179;52.106;21.024;2023-02-23T13:29:13;100457.81;;;5.82;48.02
22031;BME280;11179;52.106;21.024;2023-02-23T13:31:44;100453.69;;;5.73;48.20
22031;BME280;11179;52.106;21.024;2023-02-23T13:34:24;100447.47;;;5.66;48.32
22031;BME280;11179;52.106;21.024;2023-02-23T13:36:51;100437.63;;;5.65;48.28
22031;BME280;11179;52.106;21.024;2023-02-23T13:44:40;100433.63;;;5.67;48.29
22031;BME280;11179;52.106;21.024;2023-02-23T13:49:58;100428.09;;;5.74;48.36
22031;BME280;11179;52.106;21.024;2023-02-23T13:54:56;100419.94;;;5.74;48.26
22031;BME280;11179;52.106;21.024;2023-02-23T13:57:23;100414.72;;;5.72;48.35
22031;BME280;11179;52.106;21.024;2023-02-23T13:59:51;100410.34;;;5.71;48.24
22031;BME280;11179;52.106;21.024;2023-02-23T14:02:33;100410.41;;;5.65;48.51
22031;BME280;11179;52.106;21.024;2023-02-23T14:05:25;100400.13;;;5.67;48.43
22031;BME280;11179;52.106;21.024;2023-02-23T14:07:59;100405.19;;;5.63;48.26
22031;BME280;11179;52.106;21.024;2023-02-23T14:10:37;100396.47;;;5.55;48.55
22031;BME280;11179;52.106;21.024;2023-02-23T14:23:26;100384.00;;;5.65;48.67
22031;BME280;11179;52.106;21.024;2023-02-23T14:26:16;100378.78;;;5.64;48.94
22031;BME280;11179;52.106;21.024;2023-02-23T14:28:47;100384.00;;;5.65;48.90
22031;BME280;11179;52.106;21.024;2023-02-23T14:31:33;100372.50;;;5.63;48.87
22031;BME280;11179;52.106;21.024;2023-02-23T14:33:59;100383.38;;;5.63;49.02
22031;BME280;11179;52.106;21.024;2023-02-23T14:39:08;100369.63;;;5.58;49.11
22031;BME280;11179;52.106;21.024;2023-02-23T14:41:58;100362.28;;;5.59;48.96
22031;BME280;11179;52.106;21.024;2023-02-23T14:44:36;100362.81;;;5.67;48.91
22031;BME280;11179;52.106;21.024;2023-02-23T14:47:15;100351.09;;;5.67;49.17
22031;BME280;11179;52.106;21.024;2023-02-23T14:49:56;100351.25;;;5.72;48.98
22031;BME280;11179;52.106;21.024;2023-02-23T14:52:34;100350.16;;;5.73;49.25
22031;BME280;11179;52.106;21.024;2023-02-23T14:57:37;100351.91;;;5.67;49.32
22031;BME280;11179;52.106;21.024;2023-02-23T15:02:56;100340.25;;;5.60;49.09